createdAt,value
2018-09-21T00:01:31.502Z,4.70
2018-09-21T00:03:58.963Z,4.30
2018-09-21T00:06:26.358Z,4.53
2018-09-21T00:08:53.799Z,4.53
2018-09-21T00:11:21.234Z,4.03
2018-09-21T00:13:48.692Z,4.17
2018-09-21T00:16:16.067Z,4.27
2018-09-21T00:18:43.495Z,4.57
2018-09-21T00:21:10.930Z,4.63
2018-09-21T00:23:38.390Z,4.53
2018-09-21T00:26:05.815Z,4.27
2018-09-21T00:28:33.272Z,4.50
2018-09-21T00:31:00.686Z,4.93
2018-09-21T00:33:28.092Z,4.40
2018-09-21T00:35:55.527Z,4.70
2018-09-21T00:38:22.976Z,4.27
2018-09-21T00:40:50.387Z,4.43
2018-09-21T00:43:17.801Z,4.37
2018-09-21T00:45:45.229Z,4.70
2018-09-21T00:48:12.661Z,4.57
2018-09-21T00:50:40.079Z,4.43
2018-09-21T00:53:07.514Z,5.20
2018-09-21T00:55:34.939Z,5.17
2018-09-21T00:58:02.382Z,4.70
2018-09-21T01:00:29.822Z,4.67
2018-09-21T01:02:57.253Z,4.77
2018-09-21T01:05:24.681Z,5.40
2018-09-21T01:07:52.108Z,4.50
2018-09-21T01:10:19.522Z,4.83
2018-09-21T01:12:46.951Z,4.60
2018-09-21T01:15:14.375Z,5.43
2018-09-21T01:17:41.799Z,5.07
2018-09-21T01:20:09.235Z,4.73
2018-09-21T01:22:36.673Z,5.17
2018-09-21T01:25:04.095Z,4.80
2018-09-21T01:27:31.525Z,5.10
2018-09-21T01:29:58.970Z,5.80
2018-09-21T01:32:26.367Z,5.43
2018-09-21T01:34:53.808Z,4.93
2018-09-21T01:37:21.276Z,5.20
2018-09-21T01:39:48.708Z,5.23
2018-09-21T01:42:16.128Z,5.17
2018-09-21T01:44:43.555Z,5.07
2018-09-21T01:47:10.971Z,4.50
2018-09-21T01:49:38.396Z,4.90
2018-09-21T01:52:05.838Z,5.13
2018-09-21T01:54:33.253Z,4.50
2018-09-21T01:57:00.677Z,4.90
2018-09-21T01:59:28.081Z,4.77
2018-09-21T02:01:55.533Z,4.60
2018-09-21T02:04:22.946Z,4.77
2018-09-21T02:06:50.354Z,6.07
2018-09-21T02:09:17.782Z,4.70
2018-09-21T02:11:45.186Z,5.30
2018-09-21T02:14:12.614Z,4.97
2018-09-21T02:16:40.053Z,5.33
2018-09-21T02:19:07.459Z,4.90
2018-09-21T02:21:34.872Z,5.10
2018-09-21T02:24:02.284Z,4.87
2018-09-21T02:26:29.709Z,5.20
2018-09-21T02:28:57.133Z,5.70
2018-09-21T02:31:24.524Z,5.33
2018-09-21T02:33:51.962Z,5.50
2018-09-21T02:36:19.419Z,5.90
2018-09-21T02:38:46.829Z,4.80
2018-09-21T02:41:14.265Z,4.93
2018-09-21T02:43:41.652Z,5.10
2018-09-21T02:46:09.049Z,4.80
2018-09-21T02:48:36.538Z,4.60
2018-09-21T02:51:03.882Z,4.70
2018-09-21T02:53:31.322Z,5.13
2018-09-21T02:55:58.747Z,4.77
2018-09-21T02:58:26.179Z,5.40
2018-09-21T03:00:53.744Z,4.70
2018-09-21T03:03:21.021Z,5.03
2018-09-21T03:05:48.465Z,5.05
2018-09-21T03:08:16.852Z,4.87
2018-09-21T03:10:43.317Z,4.13
2018-09-21T03:13:10.754Z,5.00
2018-09-21T03:15:38.152Z,5.30
2018-09-21T03:18:05.568Z,4.40
2018-09-21T03:20:32.979Z,5.10
2018-09-21T03:23:00.414Z,5.03
2018-09-21T03:25:27.838Z,5.10
2018-09-21T03:27:55.247Z,4.90
2018-09-21T03:30:22.696Z,4.90
2018-09-21T03:32:50.131Z,4.60
2018-09-21T03:35:17.660Z,4.80
2018-09-21T03:37:45.015Z,4.83
2018-09-21T03:40:12.423Z,4.80
2018-09-21T03:42:59.566Z,4.57
2018-09-21T03:45:26.998Z,4.90
2018-09-21T03:47:54.408Z,4.30
2018-09-21T03:50:21.837Z,4.63
2018-09-21T03:52:49.230Z,4.57
2018-09-21T03:55:16.660Z,4.37
2018-09-21T03:57:44.089Z,4.67
2018-09-21T04:00:11.491Z,4.77
2018-09-21T04:02:38.902Z,4.40
2018-09-21T04:05:06.427Z,4.50
2018-09-21T04:07:33.824Z,4.67
2018-09-21T04:10:01.236Z,4.27
2018-09-21T04:12:28.663Z,4.53
2018-09-21T04:14:56.076Z,4.00
2018-09-21T04:17:23.507Z,4.43
2018-09-21T04:19:50.899Z,3.90
2018-09-21T04:22:18.300Z,4.03
2018-09-21T04:24:45.727Z,4.20
2018-09-21T04:27:13.174Z,4.20
2018-09-21T04:29:40.595Z,4.00
2018-09-21T04:32:08.025Z,3.70
2018-09-21T04:34:35.424Z,4.00
2018-09-21T04:37:02.883Z,3.97
2018-09-21T04:39:30.299Z,3.73
2018-09-21T04:41:57.706Z,4.03
2018-09-21T04:44:25.142Z,3.53
2018-09-21T04:46:52.557Z,3.77
2018-09-21T04:49:19.990Z,3.77
2018-09-21T04:51:47.410Z,3.43
2018-09-21T04:54:14.844Z,3.43
2018-09-21T04:56:42.247Z,3.37
2018-09-21T04:59:09.687Z,3.83
2018-09-21T05:01:37.091Z,4.00
2018-09-21T05:04:04.518Z,3.53
2018-09-21T05:06:31.927Z,3.90
2018-09-21T05:08:59.360Z,3.60
2018-09-21T05:11:26.772Z,3.83
2018-09-21T05:13:54.238Z,3.80
2018-09-21T05:16:21.615Z,4.33
2018-09-21T05:18:49.022Z,4.47
2018-09-21T05:21:16.444Z,4.07
2018-09-21T05:23:43.875Z,4.07
2018-09-21T05:26:11.343Z,4.80
2018-09-21T05:28:38.709Z,4.60
2018-09-21T05:31:06.152Z,4.63
2018-09-21T05:33:33.560Z,4.77
2018-09-21T05:36:00.990Z,4.93
2018-09-21T05:38:28.404Z,5.00
2018-09-21T05:40:55.832Z,4.67
2018-09-21T05:43:23.266Z,5.23
2018-09-21T05:45:50.710Z,5.50
2018-09-21T05:48:18.156Z,5.27
2018-09-21T05:50:45.579Z,6.07
2018-09-21T05:53:13.017Z,5.83
2018-09-21T05:55:40.435Z,5.73
2018-09-21T05:58:07.882Z,5.80
2018-09-21T06:00:35.293Z,5.70
2018-09-21T06:03:02.822Z,5.30
2018-09-21T06:05:30.176Z,5.60
2018-09-21T06:07:57.607Z,4.70
2018-09-21T06:10:25.000Z,5.23
2018-09-21T06:12:52.480Z,4.57
2018-09-21T06:15:19.905Z,4.60
2018-09-21T06:17:47.316Z,4.60
2018-09-21T06:20:14.885Z,4.40
2018-09-21T06:22:45.154Z,4.00
2018-09-21T06:25:09.719Z,4.40
2018-09-21T06:27:37.124Z,4.30
2018-09-21T06:30:04.542Z,4.23
2018-09-21T06:32:31.994Z,4.20
2018-09-21T06:34:59.410Z,4.43
2018-09-21T06:37:26.836Z,3.80
2018-09-21T06:39:54.246Z,4.10
2018-09-21T06:42:21.674Z,4.33
2018-09-21T06:44:49.078Z,4.50
2018-09-21T06:47:16.501Z,5.20
2018-09-21T06:49:44.059Z,4.47
2018-09-21T06:52:11.518Z,4.67
2018-09-21T06:54:38.885Z,5.50
2018-09-21T06:57:06.345Z,7.63
2018-09-21T06:59:33.759Z,3.30
2018-09-21T07:04:28.594Z,4.00
2018-09-21T07:06:56.017Z,2.60
2018-09-21T07:09:23.461Z,3.43
2018-09-21T07:11:50.872Z,2.50
2018-09-21T07:14:18.313Z,2.97
2018-09-21T07:16:45.756Z,3.27
2018-09-21T07:19:13.182Z,2.40
2018-09-21T07:21:40.624Z,2.43
2018-09-21T07:24:08.048Z,2.43
2018-09-21T07:26:35.460Z,2.43
2018-09-21T07:29:02.906Z,2.50
2018-09-21T07:31:30.299Z,2.80
2018-09-21T07:33:57.754Z,4.30
2018-09-21T07:36:25.149Z,4.73
2018-09-21T07:38:52.577Z,3.00
2018-09-21T07:41:20.006Z,3.43
2018-09-21T07:43:47.417Z,3.10
2018-09-21T07:46:14.874Z,2.77
2018-09-21T07:48:42.294Z,3.20
2018-09-21T07:51:09.716Z,2.90
2018-09-21T07:53:37.158Z,3.17
2018-09-21T07:56:04.571Z,3.80
2018-09-21T07:58:32.019Z,3.47
2018-09-21T08:00:59.439Z,3.07
2018-09-21T08:03:26.868Z,3.47
2018-09-21T08:05:54.306Z,2.97
2018-09-21T08:08:21.718Z,2.90
2018-09-21T08:10:49.180Z,3.23
2018-09-21T08:13:16.598Z,2.50
2018-09-21T08:15:44.034Z,2.97
2018-09-21T08:18:11.456Z,2.97
2018-09-21T08:20:38.889Z,2.63
2018-09-21T08:23:06.304Z,3.13
2018-09-21T08:25:33.756Z,2.90
2018-09-21T08:28:01.205Z,3.30
2018-09-21T08:30:28.639Z,2.77
2018-09-21T08:32:56.079Z,3.17
2018-09-21T08:35:23.527Z,2.87
2018-09-21T08:37:50.941Z,2.80
2018-09-21T08:40:18.368Z,3.33
2018-09-21T08:42:45.785Z,3.43
2018-09-21T08:45:13.233Z,2.63
2018-09-21T08:47:40.695Z,2.40
2018-09-21T08:50:08.132Z,3.13
2018-09-21T08:52:35.560Z,3.10
2018-09-21T08:55:03.115Z,3.00
2018-09-21T08:57:30.505Z,2.80
2018-09-21T08:59:58.009Z,3.00
2018-09-21T09:05:54.453Z,3.40
2018-09-21T09:08:21.913Z,3.60
2018-09-21T09:10:49.289Z,3.53
2018-09-21T09:13:16.739Z,3.20
2018-09-21T09:15:44.146Z,2.97
2018-09-21T09:18:11.584Z,2.93
2018-09-21T09:20:39.024Z,3.37
2018-09-21T09:23:06.460Z,3.50
2018-09-21T09:25:33.905Z,3.20
2018-09-21T09:28:01.334Z,3.00
2018-09-21T09:30:28.818Z,3.23
2018-09-21T09:32:56.232Z,3.83
2018-09-21T09:35:23.685Z,3.63
2018-09-21T09:37:51.099Z,3.53
2018-09-21T09:40:18.541Z,3.83
2018-09-21T09:42:45.997Z,4.03
2018-09-21T09:45:13.401Z,3.43
2018-09-21T09:47:40.810Z,3.20
2018-09-21T09:50:08.268Z,4.20
2018-09-21T09:52:35.670Z,3.92
2018-09-21T09:55:03.086Z,3.07
2018-09-21T09:57:30.516Z,2.50
2018-09-21T09:59:57.952Z,2.30
2018-09-21T10:02:25.392Z,1.97
2018-09-21T10:04:52.793Z,1.80
2018-09-21T10:07:20.216Z,1.90
2018-09-21T10:09:47.668Z,1.43
2018-09-21T10:12:15.103Z,1.63
2018-09-21T10:14:42.551Z,1.60
2018-09-21T10:17:09.957Z,1.40
2018-09-21T10:19:37.361Z,1.30
2018-09-21T10:22:04.798Z,1.57
2018-09-21T10:24:32.247Z,1.50
2018-09-21T10:26:59.669Z,1.20
2018-09-21T10:29:27.089Z,1.60
2018-09-21T10:31:54.482Z,1.10
2018-09-21T10:34:21.912Z,1.37
2018-09-21T10:36:49.355Z,1.33
2018-09-21T10:39:16.874Z,1.30
2018-09-21T10:41:44.194Z,1.57
2018-09-21T10:44:11.602Z,1.60
2018-09-21T10:46:39.031Z,1.20
2018-09-21T10:49:06.424Z,1.07
2018-09-21T10:51:33.862Z,1.00
2018-09-21T10:54:01.289Z,1.40
2018-09-21T10:56:28.695Z,1.10
2018-09-21T10:58:56.135Z,2.63
2018-09-21T11:01:23.541Z,1.30
2018-09-21T11:03:50.968Z,0.90
2018-09-21T11:06:18.370Z,1.10
2018-09-21T11:08:45.829Z,1.43
2018-09-21T11:11:13.232Z,1.30
2018-09-21T11:13:40.650Z,1.27
2018-09-21T11:16:08.077Z,1.17
2018-09-21T11:18:35.490Z,1.13
2018-09-21T11:21:02.954Z,1.30
2018-09-21T11:23:30.350Z,1.20
2018-09-21T11:25:57.773Z,1.10
2018-09-21T11:28:25.183Z,1.00
2018-09-21T11:30:52.606Z,1.00
2018-09-21T11:33:20.034Z,0.90
2018-09-21T11:35:47.466Z,1.40
2018-09-21T11:38:14.875Z,1.00
2018-09-21T11:40:42.291Z,1.10
2018-09-21T11:43:09.729Z,1.13
2018-09-21T11:45:37.164Z,1.30
2018-09-21T11:48:04.588Z,1.67
2018-09-21T11:50:32.004Z,1.10
2018-09-21T11:52:59.440Z,1.40
2018-09-21T11:55:26.862Z,1.10
2018-09-21T11:57:54.296Z,1.23
2018-09-21T12:00:21.697Z,1.10
2018-09-21T12:02:49.134Z,1.43
2018-09-21T12:05:16.553Z,1.20
2018-09-21T12:07:43.947Z,1.63
2018-09-21T12:10:11.393Z,1.37
2018-09-21T12:12:38.788Z,1.07
2018-09-21T12:15:06.219Z,1.30
2018-09-21T12:17:33.665Z,0.90
2018-09-21T12:20:01.059Z,0.90
2018-09-21T12:22:28.499Z,1.20
2018-09-21T12:24:55.924Z,1.10
2018-09-21T12:27:23.361Z,0.87
2018-09-21T12:29:50.801Z,1.00
2018-09-21T12:32:18.221Z,1.10
2018-09-21T12:34:45.633Z,1.23
2018-09-21T12:37:13.076Z,1.00
2018-09-21T12:39:40.500Z,0.93
2018-09-21T12:42:07.905Z,0.90
2018-09-21T12:44:35.435Z,0.90
2018-09-21T12:47:02.764Z,1.00
2018-09-21T12:49:30.204Z,1.10
2018-09-21T12:51:57.617Z,1.10
2018-09-21T12:54:25.056Z,1.33
2018-09-21T12:56:52.468Z,1.57
2018-09-21T12:59:19.890Z,1.40
2018-09-21T13:01:47.298Z,1.20
2018-09-21T13:04:14.738Z,1.30
2018-09-21T13:06:42.149Z,1.20
2018-09-21T13:09:09.583Z,1.20
2018-09-21T13:11:36.997Z,1.20
2018-09-21T13:14:04.416Z,1.00
2018-09-21T13:16:31.856Z,1.57
2018-09-21T13:18:59.258Z,1.07
2018-09-21T13:21:26.689Z,1.50
2018-09-21T13:23:54.110Z,1.20
2018-09-21T13:26:21.556Z,1.60
2018-09-21T13:28:48.974Z,1.70
2018-09-21T13:31:16.411Z,1.20
2018-09-21T13:33:43.820Z,1.53
2018-09-21T13:36:11.254Z,1.40
2018-09-21T13:38:38.655Z,1.70
2018-09-21T13:41:06.124Z,1.73
2018-09-21T13:43:33.539Z,1.07
2018-09-21T13:46:00.959Z,1.10
2018-09-21T13:48:28.392Z,1.00
2018-09-21T13:50:55.802Z,1.00
2018-09-21T13:53:23.257Z,1.10
2018-09-21T13:55:50.657Z,1.20
2018-09-21T13:58:18.140Z,1.10
2018-09-21T14:00:45.568Z,1.00
2018-09-21T14:03:13.037Z,1.03
2018-09-21T14:05:40.486Z,1.23
2018-09-21T14:08:07.880Z,1.57
2018-09-21T14:10:35.314Z,1.50
2018-09-21T14:13:02.753Z,1.40
2018-09-21T14:15:30.175Z,0.90
2018-09-21T14:17:57.611Z,1.53
2018-09-21T14:20:25.024Z,1.57
2018-09-21T14:22:52.471Z,1.40
2018-09-21T14:25:19.908Z,1.47
2018-09-21T14:27:47.338Z,1.20
2018-09-21T14:30:14.755Z,1.13
2018-09-21T14:32:42.244Z,1.60
2018-09-21T14:35:09.674Z,1.20
2018-09-21T14:37:37.169Z,1.17
2018-09-21T14:40:04.585Z,1.50
2018-09-21T14:42:32.013Z,1.33
2018-09-21T14:44:59.440Z,1.30
2018-09-21T14:47:26.841Z,1.63
2018-09-21T14:49:54.274Z,1.20
2018-09-21T14:52:21.675Z,1.30
2018-09-21T14:54:49.109Z,1.40
2018-09-21T14:57:16.523Z,1.30
2018-09-21T14:59:43.955Z,1.10
2018-09-21T15:02:11.358Z,1.20
2018-09-21T15:04:40.701Z,1.10
2018-09-21T15:07:08.186Z,1.33
2018-09-21T15:09:35.575Z,1.00
2018-09-21T15:12:03.009Z,1.20
2018-09-21T15:14:30.458Z,0.97
2018-09-21T15:16:57.858Z,1.20
2018-09-21T15:19:25.293Z,1.33
2018-09-21T15:21:52.768Z,1.13
2018-09-21T15:24:20.186Z,1.27
2018-09-21T15:26:47.620Z,1.13
2018-09-21T15:29:15.051Z,1.20
2018-09-21T15:31:42.519Z,1.50
2018-09-21T15:34:09.923Z,1.50
2018-09-21T15:36:37.392Z,1.73
2018-09-21T15:39:04.802Z,1.20
2018-09-21T15:41:32.235Z,1.57
2018-09-21T15:43:59.659Z,1.67
2018-09-21T15:46:27.063Z,1.77
2018-09-21T15:48:54.516Z,1.83
2018-09-21T15:51:23.444Z,1.40
2018-09-21T15:53:50.877Z,1.30
2018-09-21T15:56:18.297Z,1.47
2018-09-21T15:58:45.742Z,1.40
2018-09-21T16:01:13.148Z,1.67
2018-09-21T16:03:40.550Z,1.57
2018-09-21T16:06:08.167Z,1.73
2018-09-21T16:08:35.392Z,1.80
2018-09-21T16:11:02.847Z,1.50
2018-09-21T16:13:30.240Z,1.30
2018-09-21T16:15:57.676Z,1.60
2018-09-21T16:18:25.103Z,1.40
2018-09-21T16:20:52.520Z,1.23
2018-09-21T16:23:19.935Z,1.40
2018-09-21T16:25:47.381Z,2.20
2018-09-21T16:28:14.793Z,1.53
2018-09-21T16:30:42.232Z,2.03
2018-09-21T16:33:09.637Z,1.70
2018-09-21T16:35:37.052Z,1.93
2018-09-21T16:38:04.486Z,2.03
2018-09-21T16:40:31.891Z,1.50
2018-09-21T16:42:59.331Z,1.30
2018-09-21T16:45:26.744Z,1.40
2018-09-21T16:47:54.164Z,1.70
2018-09-21T16:50:21.604Z,1.37
2018-09-21T16:52:49.019Z,1.83
2018-09-21T16:55:16.428Z,1.60
2018-09-21T16:57:43.897Z,1.63
2018-09-21T17:00:11.302Z,1.67
2018-09-21T17:06:19.948Z,1.60
2018-09-21T17:08:47.389Z,1.50
2018-09-21T17:11:14.849Z,1.50
2018-09-21T17:13:45.248Z,2.00
2018-09-21T17:16:12.650Z,1.77
2018-09-21T17:18:40.046Z,1.57
2018-09-21T17:21:07.551Z,1.70
2018-09-21T17:23:34.916Z,2.07
2018-09-21T17:26:02.374Z,1.53
2018-09-21T17:28:29.779Z,2.07
2018-09-21T17:30:57.220Z,2.00
2018-09-21T17:33:24.655Z,1.77
2018-09-21T17:35:52.100Z,1.70
2018-09-21T17:38:19.566Z,1.93
2018-09-21T17:40:47.024Z,1.80
2018-09-21T17:43:14.436Z,1.60
2018-09-21T17:45:41.894Z,1.77
2018-09-21T17:48:09.316Z,1.80
2018-09-21T17:50:36.755Z,1.70
2018-09-21T17:53:04.196Z,1.50
2018-09-21T17:55:34.343Z,1.80
2018-09-21T17:58:03.003Z,1.70
2018-09-21T18:00:30.751Z,2.10
2018-09-21T18:02:58.538Z,1.90
2018-09-21T18:05:25.980Z,1.70
2018-09-21T18:07:53.630Z,1.80
2018-09-21T18:10:57.765Z,2.33
2018-09-21T18:13:25.248Z,1.70
2018-09-21T18:15:52.784Z,2.00
2018-09-21T18:18:20.222Z,2.67
2018-09-21T18:20:47.669Z,1.60
2018-09-21T18:23:15.285Z,2.07
2018-09-21T18:25:42.823Z,2.30
2018-09-21T18:28:10.222Z,2.10
2018-09-21T18:30:37.676Z,1.90
2018-09-21T18:33:05.131Z,2.03
2018-09-21T18:35:32.600Z,1.93
2018-09-21T18:38:00.129Z,1.93
2018-09-21T18:40:27.552Z,2.13
2018-09-21T18:42:55.005Z,2.50
2018-09-21T18:45:22.444Z,2.60
2018-09-21T18:47:49.907Z,1.70
2018-09-21T18:50:17.426Z,1.60
2018-09-21T18:52:44.830Z,2.23
2018-09-21T18:55:12.360Z,2.17
2018-09-21T18:57:39.775Z,2.23
2018-09-21T19:00:09.823Z,2.10
2018-09-21T19:02:37.626Z,2.40
2018-09-21T19:05:05.076Z,2.30
2018-09-21T19:07:32.522Z,2.63
2018-09-21T19:09:59.996Z,2.10
2018-09-21T19:12:27.439Z,2.00
2018-09-21T19:14:54.906Z,2.10
2018-09-21T19:17:22.346Z,2.40
2018-09-21T19:19:50.094Z,2.00
2018-09-21T19:22:17.579Z,2.43
2018-09-21T19:24:45.284Z,2.23
2018-09-21T19:27:12.719Z,2.50
2018-09-21T19:29:40.234Z,1.67
2018-09-21T19:32:07.734Z,2.53
2018-09-21T19:34:35.208Z,2.47
2018-09-21T19:37:02.670Z,2.60
2018-09-21T19:39:30.117Z,3.00
2018-09-21T19:41:57.708Z,2.03
2018-09-21T20:01:25.238Z,2.80
2018-09-21T20:03:52.725Z,2.30
2018-09-21T20:06:20.163Z,2.73
2018-09-21T20:08:47.620Z,2.77
2018-09-21T20:11:15.056Z,2.40
2018-09-21T20:13:42.499Z,2.87
2018-09-21T20:16:09.934Z,6.77
2018-09-21T20:18:37.374Z,3.03
2018-09-21T20:21:04.819Z,2.67
2018-09-21T20:23:32.270Z,2.83
2018-09-21T20:25:59.716Z,3.37
2018-09-21T20:28:27.200Z,2.90
2018-09-21T20:30:54.684Z,3.50
2018-09-21T20:33:28.362Z,2.97
2018-09-21T20:35:55.884Z,2.93
2018-09-21T20:38:42.955Z,2.67
2018-09-21T20:41:10.397Z,2.60
2018-09-21T20:43:37.860Z,2.60
2018-09-21T20:46:05.368Z,3.20
2018-09-21T20:48:33.111Z,2.70
2018-09-21T20:51:00.608Z,2.73
2018-09-21T20:53:28.017Z,2.80
2018-09-21T20:55:55.472Z,2.80
2018-09-21T20:58:22.891Z,2.90
2018-09-21T21:00:50.342Z,2.50
2018-09-21T21:03:17.744Z,3.30
2018-09-21T21:05:45.223Z,2.97
2018-09-21T21:08:12.625Z,3.40
2018-09-21T21:10:40.071Z,2.87
2018-09-21T21:13:07.561Z,2.97
2018-09-21T21:15:34.960Z,3.53
2018-09-21T21:18:02.401Z,2.80
2018-09-21T21:20:29.793Z,2.63
2018-09-21T21:22:57.242Z,3.73
2018-09-21T21:25:24.646Z,3.50
2018-09-21T21:27:52.118Z,3.27
2018-09-21T21:30:19.529Z,2.63
2018-09-21T21:32:46.972Z,2.57
2018-09-21T21:35:14.394Z,2.77
2018-09-21T21:37:41.807Z,3.40
2018-09-21T21:40:09.265Z,2.93
2018-09-21T21:42:36.668Z,2.93
2018-09-21T21:45:04.117Z,2.40
2018-09-21T21:47:31.533Z,3.10
2018-09-21T21:49:58.953Z,2.50
2018-09-21T21:52:26.369Z,2.30
2018-09-21T21:54:53.829Z,3.40
2018-09-21T21:57:21.262Z,2.47
2018-09-21T21:59:48.677Z,3.07
2018-09-21T22:02:16.142Z,3.03
2018-09-21T22:04:43.569Z,2.80
2018-09-21T22:07:11.018Z,2.83
2018-09-21T22:09:38.475Z,2.90
2018-09-21T22:12:05.888Z,3.27
2018-09-21T22:14:33.348Z,3.00
2018-09-21T22:17:21.465Z,3.07
2018-09-21T22:19:48.896Z,2.50
2018-09-21T22:22:16.340Z,3.37
2018-09-21T22:24:43.763Z,2.83
2018-09-21T22:27:11.225Z,3.13
2018-09-21T22:29:38.688Z,2.70
2018-09-21T22:32:06.130Z,2.50
2018-09-21T22:34:33.560Z,3.00
2018-09-21T22:37:00.996Z,3.17
2018-09-21T22:39:28.421Z,2.97
2018-09-21T22:41:55.894Z,2.30
2018-09-21T22:44:23.320Z,2.57
2018-09-21T22:46:50.782Z,2.60
2018-09-21T22:49:18.198Z,3.33
2018-09-21T22:51:45.610Z,3.23
2018-09-21T22:54:13.033Z,2.80
2018-09-21T22:56:40.478Z,3.07
2018-09-21T22:59:07.904Z,2.57
2018-09-21T23:01:35.325Z,2.70
2018-09-21T23:04:02.768Z,2.80
2018-09-21T23:06:30.213Z,3.42
2018-09-21T23:08:57.657Z,2.93
2018-09-21T23:11:25.085Z,2.43
2018-09-21T23:13:52.556Z,2.90
2018-09-21T23:16:19.965Z,3.47
2018-09-21T23:18:47.399Z,3.13
2018-09-21T23:21:14.835Z,2.77
2018-09-21T23:23:42.275Z,2.77
2018-09-21T23:26:09.700Z,2.50
2018-09-21T23:28:37.125Z,3.17
2018-09-21T23:31:04.543Z,2.93
2018-09-21T23:33:31.997Z,2.63
2018-09-21T23:35:59.410Z,3.13
2018-09-21T23:38:26.824Z,2.83
2018-09-21T23:40:54.269Z,2.40
2018-09-21T23:43:21.699Z,2.97
2018-09-21T23:45:49.138Z,2.40
2018-09-21T23:48:16.545Z,2.77
2018-09-21T23:50:43.989Z,2.57
2018-09-21T23:53:11.420Z,2.47
2018-09-21T23:55:38.824Z,2.80
2018-09-21T23:58:06.284Z,3.57
